createdAt,value
2017-12-14T00:01:01.710Z,5.90
2017-12-14T00:02:05.789Z,5.80
2017-12-14T00:03:09.919Z,5.80
2017-12-14T00:04:14.771Z,5.70
2017-12-14T00:05:19.594Z,5.70
2017-12-14T00:06:24.548Z,5.60
2017-12-14T00:07:28.642Z,5.60
2017-12-14T00:08:33.182Z,5.60
2017-12-14T00:09:38.130Z,5.70
2017-12-14T00:10:43.225Z,5.60
2017-12-14T00:11:47.995Z,5.60
2017-12-14T00:12:52.884Z,5.60
2017-12-14T00:13:57.089Z,5.60
2017-12-14T00:15:01.171Z,5.60
2017-12-14T00:16:05.370Z,5.60
2017-12-14T00:17:10.293Z,5.50
2017-12-14T00:18:14.727Z,5.40
2017-12-14T00:19:18.927Z,5.50
2017-12-14T00:20:22.909Z,5.40
2017-12-14T00:21:27.016Z,5.40
2017-12-14T00:22:31.422Z,5.40
2017-12-14T00:23:36.291Z,5.40
2017-12-14T00:24:40.298Z,5.40
2017-12-14T00:25:44.634Z,5.40
2017-12-14T00:26:48.826Z,5.40
2017-12-14T00:27:53.118Z,5.50
2017-12-14T00:28:57.988Z,5.50
2017-12-14T00:30:02.415Z,5.50
2017-12-14T00:31:06.649Z,5.60
2017-12-14T00:32:11.568Z,5.60
2017-12-14T00:33:16.467Z,5.60
2017-12-14T00:34:21.452Z,5.60
2017-12-14T00:35:25.915Z,5.60
2017-12-14T00:36:31.139Z,5.60
2017-12-14T00:37:35.299Z,5.60
2017-12-14T00:38:39.434Z,5.60
2017-12-14T00:39:44.736Z,5.60
2017-12-14T00:40:49.125Z,5.60
2017-12-14T00:41:53.966Z,5.60
2017-12-14T00:42:58.280Z,5.70
2017-12-14T00:44:02.368Z,5.80
2017-12-14T00:45:06.411Z,5.70
2017-12-14T00:46:11.417Z,5.60
2017-12-14T00:47:15.990Z,5.60
2017-12-14T00:48:20.446Z,5.60
2017-12-14T00:49:24.600Z,5.50
2017-12-14T00:50:28.754Z,5.50
2017-12-14T00:51:33.348Z,5.40
2017-12-14T00:52:37.647Z,5.50
2017-12-14T00:53:42.121Z,5.40
2017-12-14T00:54:46.542Z,5.50
2017-12-14T00:55:50.912Z,5.40
2017-12-14T00:56:55.317Z,5.50
2017-12-14T00:57:59.610Z,5.50
2017-12-14T00:59:04.009Z,5.50
2017-12-14T01:00:08.654Z,5.40
2017-12-14T01:01:12.840Z,5.40
2017-12-14T01:02:17.303Z,5.40
2017-12-14T01:03:21.414Z,5.40
2017-12-14T01:04:25.521Z,5.50
2017-12-14T01:05:29.622Z,5.50
2017-12-14T01:06:33.732Z,5.50
2017-12-14T01:07:38.670Z,5.50
2017-12-14T01:08:42.781Z,5.50
2017-12-14T01:09:47.082Z,5.50
2017-12-14T01:10:51.381Z,5.50
2017-12-14T01:11:55.440Z,5.50
2017-12-14T01:13:00.308Z,5.50
2017-12-14T01:14:04.678Z,5.50
2017-12-14T01:15:08.733Z,5.50
2017-12-14T01:16:12.832Z,5.50
2017-12-14T01:17:16.797Z,5.50
2017-12-14T01:18:20.926Z,5.50
2017-12-14T01:19:25.446Z,5.50
2017-12-14T01:20:29.941Z,5.50
2017-12-14T01:21:34.430Z,5.50
2017-12-14T01:22:38.629Z,5.60
2017-12-14T01:23:42.854Z,5.60
2017-12-14T01:24:47.377Z,5.60
2017-12-14T01:25:51.494Z,5.60
2017-12-14T01:26:55.720Z,5.70
2017-12-14T01:28:00.485Z,5.70
2017-12-14T01:29:04.835Z,5.60
2017-12-14T01:30:08.872Z,5.60
2017-12-14T01:31:12.872Z,5.60
2017-12-14T01:32:17.341Z,5.60
2017-12-14T01:33:21.553Z,5.70
2017-12-14T01:34:26.748Z,5.70
2017-12-14T01:35:30.878Z,5.70
2017-12-14T01:36:35.299Z,5.70
2017-12-14T01:37:40.232Z,5.70
2017-12-14T01:38:44.807Z,5.70
2017-12-14T01:39:48.998Z,5.60
2017-12-14T01:40:53.536Z,5.70
2017-12-14T01:41:59.659Z,5.70
2017-12-14T01:43:03.945Z,5.70
2017-12-14T01:44:08.484Z,5.70
2017-12-14T01:45:12.682Z,5.80
2017-12-14T01:46:16.928Z,5.80
2017-12-14T01:47:21.914Z,5.90
2017-12-14T01:48:26.401Z,5.80
2017-12-14T01:49:30.463Z,5.90
2017-12-14T01:50:35.045Z,5.80
2017-12-14T01:51:39.479Z,5.80
2017-12-14T01:52:44.473Z,5.80
2017-12-14T01:53:48.605Z,5.80
2017-12-14T01:54:52.645Z,5.80
2017-12-14T01:55:57.174Z,5.80
2017-12-14T01:57:01.176Z,5.90
2017-12-14T01:58:05.339Z,5.80
2017-12-14T01:59:10.183Z,5.90
2017-12-14T02:00:14.677Z,5.90
2017-12-14T02:01:20.311Z,6.00
2017-12-14T02:02:25.087Z,6.00
2017-12-14T02:03:29.690Z,6.00
2017-12-14T02:04:33.913Z,6.00
2017-12-14T02:05:38.123Z,6.00
2017-12-14T02:06:42.346Z,6.00
2017-12-14T02:07:47.233Z,6.00
2017-12-14T02:08:51.854Z,6.00
2017-12-14T02:09:56.526Z,6.00
2017-12-14T02:11:00.910Z,6.00
2017-12-14T02:12:05.223Z,6.00
2017-12-14T02:13:10.269Z,6.00
2017-12-14T02:14:14.826Z,6.00
2017-12-14T02:15:18.961Z,6.00
2017-12-14T02:16:23.160Z,6.00
2017-12-14T02:17:28.011Z,6.00
2017-12-14T02:18:32.169Z,6.10
2017-12-14T02:19:36.392Z,6.10
2017-12-14T02:20:41.156Z,6.10
2017-12-14T02:21:45.319Z,6.10
2017-12-14T02:22:50.403Z,6.10
2017-12-14T02:23:54.360Z,6.10
2017-12-14T02:24:58.394Z,6.10
2017-12-14T02:26:02.421Z,6.10
2017-12-14T02:27:06.477Z,6.10
2017-12-14T02:28:10.475Z,6.10
2017-12-14T02:29:14.804Z,6.10
2017-12-14T02:30:18.919Z,6.10
2017-12-14T02:31:23.200Z,6.10
2017-12-14T02:32:27.775Z,6.10
2017-12-14T02:33:32.501Z,6.10
2017-12-14T02:34:37.588Z,6.10
2017-12-14T02:35:41.685Z,6.10
2017-12-14T02:36:45.982Z,6.10
2017-12-14T02:37:50.293Z,6.10
2017-12-14T02:38:54.809Z,6.10
2017-12-14T02:39:59.166Z,6.20
2017-12-14T02:41:04.251Z,6.20
2017-12-14T02:42:08.496Z,6.10
2017-12-14T02:43:12.727Z,6.20
2017-12-14T02:44:17.393Z,6.20
2017-12-14T02:45:21.546Z,6.20
2017-12-14T02:46:28.450Z,6.20
2017-12-14T02:47:35.823Z,6.20
2017-12-14T02:48:40.035Z,6.30
2017-12-14T02:49:44.469Z,6.20
2017-12-14T02:50:49.741Z,5.90
2017-12-14T02:51:53.999Z,5.80
2017-12-14T02:52:58.328Z,5.70
2017-12-14T02:54:03.234Z,5.30
2017-12-14T02:55:07.667Z,5.30
2017-12-14T02:56:12.830Z,5.10
2017-12-14T02:57:17.500Z,5.10
2017-12-14T02:58:22.882Z,4.90
2017-12-14T02:59:26.953Z,4.90
2017-12-14T03:00:30.999Z,4.70
2017-12-14T03:01:35.084Z,4.60
2017-12-14T03:02:39.436Z,4.50
2017-12-14T03:03:44.307Z,4.30
2017-12-14T03:04:48.364Z,4.20
2017-12-14T03:05:53.193Z,3.90
2017-12-14T03:06:58.056Z,3.90
2017-12-14T03:08:02.076Z,3.80
2017-12-14T03:09:06.995Z,3.80
2017-12-14T03:10:11.180Z,3.70
2017-12-14T03:11:15.283Z,3.50
2017-12-14T03:12:19.786Z,3.40
2017-12-14T03:13:23.952Z,3.40
2017-12-14T03:14:28.021Z,3.40
2017-12-14T03:15:32.681Z,3.30
2017-12-14T03:16:37.328Z,3.30
2017-12-14T03:17:41.627Z,3.20
2017-12-14T03:18:45.761Z,3.20
2017-12-14T03:19:49.878Z,3.20
2017-12-14T03:20:54.646Z,3.20
2017-12-14T03:21:58.659Z,3.20
2017-12-14T03:23:02.629Z,3.20
2017-12-14T03:24:06.660Z,3.10
2017-12-14T03:25:10.853Z,3.10
2017-12-14T03:26:15.013Z,3.00
2017-12-14T03:27:19.165Z,3.10
2017-12-14T03:28:23.313Z,3.00
2017-12-14T03:29:27.497Z,3.00
2017-12-14T03:30:31.700Z,3.00
2017-12-14T03:31:35.933Z,3.00
2017-12-14T03:32:40.124Z,3.00
2017-12-14T03:33:44.299Z,3.00
2017-12-14T03:34:48.913Z,3.00
2017-12-14T03:35:53.045Z,3.00
2017-12-14T03:36:57.360Z,3.00
2017-12-14T03:38:01.852Z,3.00
2017-12-14T03:39:06.345Z,2.90
2017-12-14T03:40:11.148Z,2.90
2017-12-14T03:41:15.280Z,2.90
2017-12-14T03:42:19.516Z,2.90
2017-12-14T03:43:24.480Z,3.00
2017-12-14T03:44:28.547Z,3.00
2017-12-14T03:45:33.319Z,3.00
2017-12-14T03:46:37.301Z,3.00
2017-12-14T03:47:41.347Z,3.00
2017-12-14T03:50:14.811Z,3.00
2017-12-14T03:51:19.323Z,3.00
2017-12-14T03:52:23.405Z,3.00
2017-12-14T03:53:27.646Z,3.00
2017-12-14T03:54:31.935Z,3.00
2017-12-14T03:55:36.455Z,3.00
2017-12-14T03:56:41.141Z,3.00
2017-12-14T03:57:45.980Z,3.00
2017-12-14T03:58:50.138Z,3.10
2017-12-14T03:59:55.073Z,3.10
2017-12-14T04:01:00.000Z,3.20
2017-12-14T04:02:04.387Z,3.10
2017-12-14T04:03:09.548Z,3.30
2017-12-14T04:04:13.726Z,3.20
2017-12-14T04:05:18.639Z,3.40
2017-12-14T04:06:23.553Z,3.40
2017-12-14T04:07:27.815Z,3.40
2017-12-14T04:08:32.163Z,3.50
2017-12-14T04:09:36.910Z,3.50
2017-12-14T04:10:41.295Z,3.50
2017-12-14T04:11:45.821Z,3.50
2017-12-14T04:12:50.878Z,3.60
2017-12-14T04:13:55.568Z,3.60
2017-12-14T04:15:00.146Z,3.60
2017-12-14T04:16:05.172Z,3.70
2017-12-14T04:17:10.561Z,3.80
2017-12-14T04:18:14.917Z,3.70
2017-12-14T04:19:19.296Z,3.80
2017-12-14T04:20:23.545Z,3.80
2017-12-14T04:21:27.778Z,3.80
2017-12-14T04:22:32.120Z,3.80
2017-12-14T04:23:36.300Z,3.80
2017-12-14T04:24:40.338Z,3.80
2017-12-14T04:25:44.454Z,3.80
2017-12-14T04:26:48.604Z,3.80
2017-12-14T04:27:53.047Z,3.80
2017-12-14T04:28:57.348Z,3.80
2017-12-14T04:30:01.506Z,3.80
2017-12-14T04:31:06.345Z,3.70
2017-12-14T04:32:10.450Z,3.70
2017-12-14T04:33:14.924Z,3.60
2017-12-14T04:34:20.077Z,3.60
2017-12-14T04:35:24.221Z,3.60
2017-12-14T04:36:28.487Z,3.60
2017-12-14T04:37:32.490Z,3.60
2017-12-14T04:38:36.549Z,3.70
2017-12-14T04:39:41.238Z,3.60
2017-12-14T04:40:46.159Z,3.60
2017-12-14T04:41:50.447Z,3.70
2017-12-14T04:42:54.719Z,3.70
2017-12-14T04:43:59.684Z,3.70
2017-12-14T04:45:04.224Z,3.70
2017-12-14T04:46:08.928Z,3.70
2017-12-14T04:47:13.461Z,3.70
2017-12-14T04:48:17.948Z,3.70
2017-12-14T04:49:22.468Z,3.70
2017-12-14T04:50:26.789Z,3.70
2017-12-14T04:51:31.147Z,3.60
2017-12-14T04:52:35.926Z,3.60
2017-12-14T04:53:40.288Z,3.60
2017-12-14T04:54:44.861Z,3.50
2017-12-14T04:55:50.013Z,3.30
2017-12-14T04:56:54.736Z,3.30
2017-12-14T04:57:59.146Z,3.30
2017-12-14T04:59:03.272Z,3.20
2017-12-14T05:00:07.367Z,3.20
2017-12-14T05:01:11.478Z,3.20
2017-12-14T05:02:15.520Z,3.20
2017-12-14T05:03:20.319Z,3.10
2017-12-14T05:04:24.820Z,3.10
2017-12-14T05:05:28.915Z,3.10
2017-12-14T05:06:33.185Z,3.10
2017-12-14T05:07:37.295Z,3.10
2017-12-14T05:08:41.582Z,3.10
2017-12-14T05:09:45.718Z,3.10
2017-12-14T05:10:50.255Z,3.10
2017-12-14T05:11:54.539Z,3.00
2017-12-14T05:12:58.639Z,3.00
2017-12-14T05:14:02.742Z,3.10
2017-12-14T05:15:07.003Z,3.10
2017-12-14T05:17:14.448Z,3.10
2017-12-14T05:18:18.614Z,3.10
2017-12-14T05:19:22.740Z,3.10
2017-12-14T05:20:26.880Z,3.00
2017-12-14T05:21:31.181Z,3.10
2017-12-14T05:22:35.998Z,3.00
2017-12-14T05:23:40.009Z,3.00
2017-12-14T05:24:44.239Z,3.00
2017-12-14T05:25:48.340Z,3.00
2017-12-14T05:26:53.195Z,2.90
2017-12-14T05:27:57.349Z,3.00
2017-12-14T05:29:02.793Z,2.80
2017-12-14T05:30:06.871Z,2.80
2017-12-14T05:31:11.857Z,2.80
2017-12-14T05:32:15.969Z,2.80
2017-12-14T05:33:20.099Z,2.80
2017-12-14T05:34:24.308Z,2.80
2017-12-14T05:35:28.670Z,2.70
2017-12-14T05:36:32.934Z,2.70
2017-12-14T05:37:38.051Z,2.60
2017-12-14T05:38:43.269Z,2.60
2017-12-14T05:39:47.543Z,2.60
2017-12-14T05:40:52.015Z,2.60
2017-12-14T05:41:57.007Z,2.60
2017-12-14T05:43:01.273Z,2.50
2017-12-14T05:44:05.633Z,2.60
2017-12-14T05:45:09.802Z,2.60
2017-12-14T05:46:13.879Z,2.60
2017-12-14T05:47:17.950Z,2.60
2017-12-14T05:48:23.184Z,2.60
2017-12-14T05:49:27.551Z,2.50
2017-12-14T05:50:32.134Z,2.50
2017-12-14T05:51:36.331Z,2.50
2017-12-14T05:52:46.347Z,2.50
2017-12-14T05:53:51.098Z,2.50
2017-12-14T05:54:55.504Z,2.50
2017-12-14T05:55:59.913Z,2.50
2017-12-14T05:57:04.664Z,2.50
2017-12-14T05:58:09.013Z,2.50
2017-12-14T05:59:14.170Z,2.50
2017-12-14T06:00:18.531Z,2.50
2017-12-14T06:01:22.793Z,2.50
2017-12-14T06:02:26.957Z,2.50
2017-12-14T06:03:31.936Z,2.60
2017-12-14T06:04:36.079Z,2.60
2017-12-14T06:05:41.162Z,2.60
2017-12-14T06:06:46.146Z,2.60
2017-12-14T06:07:50.606Z,2.60
2017-12-14T06:08:54.902Z,2.50
2017-12-14T06:10:00.064Z,2.60
2017-12-14T06:11:04.990Z,2.60
2017-12-14T06:12:10.462Z,2.60
2017-12-14T06:13:14.697Z,2.60
2017-12-14T06:14:18.762Z,2.60
2017-12-14T06:15:22.942Z,2.60
2017-12-14T06:16:27.979Z,2.60
2017-12-14T06:17:32.160Z,2.70
2017-12-14T06:18:37.089Z,2.70
2017-12-14T06:19:42.349Z,2.70
2017-12-14T06:20:46.671Z,2.70
2017-12-14T06:25:02.446Z,2.90
2017-12-14T06:26:06.601Z,2.90
2017-12-14T06:27:10.780Z,2.90
2017-12-14T06:28:15.301Z,3.00
2017-12-14T06:29:19.851Z,3.10
2017-12-14T06:30:24.785Z,3.10
2017-12-14T06:31:29.032Z,3.10
2017-12-14T06:32:33.376Z,3.20
2017-12-14T06:33:37.687Z,3.20
2017-12-14T06:34:42.710Z,3.20
2017-12-14T06:35:48.166Z,3.30
2017-12-14T06:36:52.570Z,3.20
2017-12-14T06:37:57.636Z,3.40
2017-12-14T06:39:01.948Z,3.30
2017-12-14T06:40:06.191Z,3.40
2017-12-14T06:41:10.353Z,3.50
2017-12-14T06:42:14.722Z,3.50
2017-12-14T06:43:19.772Z,3.40
2017-12-14T06:44:23.833Z,3.40
2017-12-14T06:45:28.754Z,3.50
2017-12-14T06:46:33.734Z,3.60
2017-12-14T06:47:37.999Z,3.60
2017-12-14T06:48:42.662Z,3.60
2017-12-14T06:49:47.166Z,3.60
2017-12-14T06:50:51.858Z,3.60
2017-12-14T06:51:56.329Z,3.60
2017-12-14T06:53:01.517Z,3.40
2017-12-14T06:54:06.088Z,3.40
2017-12-14T06:55:11.678Z,3.40
2017-12-14T06:56:16.015Z,3.40
2017-12-14T06:57:21.110Z,3.50
2017-12-14T06:58:25.464Z,3.50
2017-12-14T06:59:30.814Z,3.40
2017-12-14T07:00:35.119Z,3.40
2017-12-14T07:01:39.863Z,3.40
2017-12-14T07:02:44.229Z,3.50
2017-12-14T07:03:48.622Z,3.40
2017-12-14T07:04:53.488Z,3.50
2017-12-14T07:05:57.661Z,3.50
2017-12-14T07:07:01.803Z,3.50
2017-12-14T07:08:06.272Z,3.60
2017-12-14T07:09:11.520Z,3.50
2017-12-14T07:10:15.754Z,3.50
2017-12-14T07:11:20.841Z,3.50
2017-12-14T07:12:28.066Z,3.40
2017-12-14T07:13:32.568Z,3.40
2017-12-14T07:14:36.703Z,3.30
2017-12-14T07:15:40.837Z,3.40
2017-12-14T07:16:44.942Z,3.30
2017-12-14T07:17:49.030Z,3.30
2017-12-14T07:18:53.055Z,3.40
2017-12-14T07:19:57.171Z,3.40
2017-12-14T07:21:01.236Z,3.40
2017-12-14T07:22:06.267Z,3.40
2017-12-14T07:23:10.493Z,3.40
2017-12-14T07:24:14.660Z,3.40
2017-12-14T07:25:19.700Z,3.30
2017-12-14T07:26:24.082Z,3.30
2017-12-14T07:27:29.533Z,3.40
2017-12-14T07:28:34.716Z,3.40
2017-12-14T07:29:39.133Z,3.30
2017-12-14T07:30:43.445Z,3.40
2017-12-14T07:31:47.780Z,3.40
2017-12-14T07:32:53.193Z,3.40
2017-12-14T07:33:57.589Z,3.40
2017-12-14T07:35:02.006Z,3.50
2017-12-14T07:36:06.149Z,3.50
2017-12-14T07:37:10.316Z,3.50
2017-12-14T07:38:15.261Z,3.50
2017-12-14T07:39:22.946Z,3.60
2017-12-14T07:40:27.921Z,3.60
2017-12-14T07:41:32.058Z,3.60
2017-12-14T07:43:11.932Z,3.60
2017-12-14T07:44:29.839Z,3.60
2017-12-14T07:45:33.910Z,3.60
2017-12-14T07:46:46.809Z,3.60
2017-12-14T07:47:59.762Z,3.60
2017-12-14T07:49:27.719Z,3.50
2017-12-14T07:50:32.570Z,3.60
2017-12-14T07:51:36.789Z,3.60
2017-12-14T07:52:40.865Z,3.60
2017-12-14T07:53:45.190Z,3.50
2017-12-14T07:54:49.253Z,3.60
2017-12-14T07:55:54.306Z,3.60
2017-12-14T07:56:58.467Z,3.60
2017-12-14T07:58:03.262Z,3.60
2017-12-14T07:59:07.393Z,3.60
2017-12-14T08:00:12.074Z,3.60
2017-12-14T08:01:16.183Z,3.60
2017-12-14T08:02:20.362Z,3.70
2017-12-14T08:03:24.381Z,3.70
2017-12-14T08:04:28.486Z,3.70
2017-12-14T08:05:32.990Z,3.70
2017-12-14T08:06:37.470Z,3.80
2017-12-14T08:07:41.723Z,3.80
2017-12-14T08:08:45.922Z,3.80
2017-12-14T08:09:50.180Z,3.80
2017-12-14T08:10:54.477Z,3.80
2017-12-14T08:11:59.555Z,3.80
2017-12-14T08:13:03.990Z,3.80
2017-12-14T08:14:08.301Z,3.80
2017-12-14T08:15:12.890Z,3.80
2017-12-14T08:16:17.274Z,3.80
2017-12-14T08:17:21.605Z,3.80
2017-12-14T08:18:25.857Z,3.90
2017-12-14T08:19:30.755Z,3.90
2017-12-14T08:20:35.667Z,3.90
2017-12-14T08:21:40.068Z,3.90
2017-12-14T08:22:44.242Z,4.00
2017-12-14T08:23:48.403Z,4.10
2017-12-14T08:24:53.297Z,4.10
2017-12-14T08:25:57.547Z,4.10
2017-12-14T08:27:01.662Z,4.20
2017-12-14T08:28:06.270Z,4.20
2017-12-14T08:29:11.219Z,4.30
2017-12-14T08:30:18.241Z,4.20
2017-12-14T08:31:25.692Z,4.30
2017-12-14T08:32:32.611Z,4.20
2017-12-14T08:33:38.962Z,4.20
2017-12-14T08:34:45.778Z,4.30
2017-12-14T08:35:50.958Z,4.30
2017-12-14T08:36:56.791Z,4.30
2017-12-14T08:38:03.080Z,4.30
2017-12-14T08:39:07.371Z,4.30
2017-12-14T08:40:11.694Z,4.30
2017-12-14T08:41:15.996Z,4.40
2017-12-14T08:42:20.407Z,4.30
2017-12-14T08:43:24.756Z,4.30
2017-12-14T08:44:29.146Z,4.40
2017-12-14T08:45:33.478Z,4.40
2017-12-14T08:46:38.731Z,4.40
2017-12-14T08:47:43.869Z,4.40
2017-12-14T08:48:48.245Z,4.40
2017-12-14T08:49:53.395Z,4.50
2017-12-14T08:50:58.519Z,4.50
2017-12-14T08:52:02.854Z,4.50
2017-12-14T08:53:07.310Z,4.50
2017-12-14T08:54:11.852Z,4.50
2017-12-14T08:55:16.168Z,4.50
2017-12-14T08:56:21.344Z,4.50
2017-12-14T08:57:25.781Z,4.50
2017-12-14T08:58:31.162Z,4.60
2017-12-14T08:59:35.462Z,4.60
2017-12-14T09:00:39.916Z,4.60
2017-12-14T09:01:44.924Z,4.70
2017-12-14T09:02:49.319Z,4.70
2017-12-14T09:03:54.014Z,4.70
2017-12-14T09:04:58.597Z,4.70
2017-12-14T09:06:03.383Z,4.70
2017-12-14T09:07:07.735Z,4.70
2017-12-14T09:08:12.631Z,4.70
2017-12-14T09:09:17.273Z,4.70
2017-12-14T09:10:21.461Z,4.70
2017-12-14T09:11:26.943Z,4.80
2017-12-14T09:12:31.270Z,4.80
2017-12-14T09:13:35.305Z,4.90
2017-12-14T09:14:40.251Z,5.00
2017-12-14T09:15:44.563Z,5.00
2017-12-14T09:16:51.889Z,5.10
2017-12-14T09:17:56.230Z,5.10
2017-12-14T09:19:01.129Z,5.10
2017-12-14T09:20:05.249Z,5.10
2017-12-14T09:21:11.666Z,5.20
2017-12-14T09:22:16.229Z,5.20
2017-12-14T09:23:21.111Z,5.20
2017-12-14T09:24:25.290Z,5.20
2017-12-14T09:25:29.574Z,5.20
2017-12-14T09:26:35.104Z,5.20
2017-12-14T09:27:39.393Z,5.20
2017-12-14T09:28:44.467Z,5.30
2017-12-14T09:29:48.835Z,5.20
2017-12-14T09:30:54.434Z,5.20
2017-12-14T09:31:58.681Z,5.20
2017-12-14T09:33:03.763Z,5.20
2017-12-14T09:34:07.894Z,5.20
2017-12-14T09:35:12.890Z,5.20
2017-12-14T09:36:17.071Z,5.20
2017-12-14T09:37:21.602Z,5.20
2017-12-14T09:38:25.786Z,5.20
2017-12-14T09:39:29.832Z,5.30
2017-12-14T09:40:33.982Z,5.30
2017-12-14T09:41:38.046Z,5.40
2017-12-14T09:42:43.137Z,5.40
2017-12-14T09:43:47.761Z,5.40
2017-12-14T09:44:52.002Z,5.40
2017-12-14T09:45:57.087Z,5.40
2017-12-14T09:47:01.435Z,5.40
2017-12-14T09:48:06.657Z,5.40
2017-12-14T09:49:11.094Z,5.40
2017-12-14T09:50:15.900Z,5.50
2017-12-14T09:51:20.493Z,5.50
2017-12-14T09:52:26.758Z,5.50
2017-12-14T09:53:32.071Z,5.50
2017-12-14T09:54:37.533Z,5.50
2017-12-14T09:55:41.874Z,5.40
2017-12-14T09:56:46.189Z,5.50
2017-12-14T09:57:51.318Z,5.50
2017-12-14T09:58:55.634Z,5.50
2017-12-14T10:00:00.770Z,5.50
2017-12-14T10:01:05.065Z,5.50
2017-12-14T10:02:10.051Z,5.50
2017-12-14T10:03:14.568Z,5.50
2017-12-14T10:04:18.673Z,5.40
2017-12-14T10:05:22.778Z,5.50
2017-12-14T10:06:27.020Z,5.40
2017-12-14T10:07:31.027Z,5.40
2017-12-14T10:08:35.213Z,5.40
2017-12-14T10:09:39.746Z,5.40
2017-12-14T10:10:44.098Z,5.40
2017-12-14T10:11:48.373Z,5.40
2017-12-14T10:12:53.522Z,5.40
2017-12-14T10:13:57.948Z,5.40
2017-12-14T10:15:02.366Z,5.40
2017-12-14T10:16:06.966Z,5.40
2017-12-14T10:17:12.052Z,5.50
2017-12-14T10:18:17.662Z,5.40
2017-12-14T10:19:21.781Z,5.40
2017-12-14T10:20:25.950Z,5.40
2017-12-14T10:21:30.107Z,5.40
2017-12-14T10:22:35.294Z,5.40
2017-12-14T10:23:39.516Z,5.40
2017-12-14T10:24:43.807Z,5.40
2017-12-14T10:25:48.072Z,5.40
2017-12-14T10:26:52.575Z,5.40
2017-12-14T10:27:57.148Z,5.40
2017-12-14T10:29:01.309Z,5.40
2017-12-14T10:30:05.469Z,5.40
2017-12-14T10:31:10.411Z,5.40
2017-12-14T10:32:14.615Z,5.40
2017-12-14T10:33:19.595Z,5.50
2017-12-14T10:34:23.868Z,5.40
2017-12-14T10:35:28.046Z,5.40
2017-12-14T10:36:32.915Z,5.50
2017-12-14T10:37:37.106Z,5.50
2017-12-14T10:38:41.557Z,5.50
2017-12-14T10:39:46.726Z,5.50
2017-12-14T10:40:51.056Z,5.50
2017-12-14T10:41:55.336Z,5.50
2017-12-14T10:42:59.744Z,5.40
2017-12-14T10:44:04.267Z,5.50
2017-12-14T10:45:08.558Z,5.50
2017-12-14T10:46:13.638Z,5.50
2017-12-14T10:47:18.035Z,5.50
2017-12-14T10:48:22.437Z,5.40
2017-12-14T10:49:26.790Z,5.40
2017-12-14T10:51:50.825Z,5.40
2017-12-14T10:52:55.019Z,5.40
2017-12-14T10:53:59.077Z,5.40
2017-12-14T10:55:04.099Z,5.40
2017-12-14T10:56:08.935Z,5.50
2017-12-14T10:57:13.438Z,5.40
2017-12-14T10:58:18.339Z,5.40
2017-12-14T10:59:23.246Z,5.40
2017-12-14T11:00:31.637Z,5.40
2017-12-14T11:01:35.796Z,5.30
2017-12-14T11:02:39.978Z,5.40
2017-12-14T11:03:44.126Z,5.40
2017-12-14T11:04:48.651Z,5.30
2017-12-14T11:05:52.951Z,5.40
2017-12-14T11:06:59.836Z,5.40
2017-12-14T11:08:04.658Z,5.30
2017-12-14T11:09:09.032Z,5.30
2017-12-14T11:10:13.440Z,5.30
2017-12-14T11:11:17.939Z,5.30
2017-12-14T11:12:23.405Z,5.30
2017-12-14T11:13:27.869Z,5.30
2017-12-14T11:14:32.527Z,5.40
2017-12-14T11:15:36.882Z,5.40
2017-12-14T11:16:42.158Z,5.40
2017-12-14T11:17:46.433Z,5.40
2017-12-14T11:18:51.632Z,5.40
2017-12-14T11:19:55.854Z,5.40
2017-12-14T11:21:00.615Z,5.40
2017-12-14T11:22:04.951Z,5.40
2017-12-14T11:23:09.300Z,5.40
2017-12-14T11:24:14.338Z,5.50
2017-12-14T11:25:18.615Z,5.50
2017-12-14T11:26:23.967Z,5.40
2017-12-14T11:27:28.902Z,5.40
2017-12-14T11:28:33.180Z,5.40
2017-12-14T11:29:38.068Z,5.30
2017-12-14T11:30:44.371Z,5.30
2017-12-14T11:31:49.563Z,5.20
2017-12-14T11:32:54.330Z,5.10
2017-12-14T11:33:58.988Z,5.10
2017-12-14T11:35:03.319Z,5.10
2017-12-14T11:36:07.758Z,5.00
2017-12-14T11:37:12.092Z,5.00
2017-12-14T11:38:16.409Z,5.00
2017-12-14T11:39:20.789Z,5.00
2017-12-14T11:40:25.006Z,5.00
2017-12-14T11:41:29.363Z,5.00
2017-12-14T11:42:33.711Z,5.00
2017-12-14T11:43:38.057Z,4.90
2017-12-14T11:44:42.794Z,4.90
2017-12-14T11:45:47.057Z,4.90
2017-12-14T11:46:51.248Z,4.90
2017-12-14T11:47:55.414Z,4.80
2017-12-14T11:48:59.536Z,4.80
2017-12-14T11:50:04.510Z,4.90
2017-12-14T11:51:09.087Z,4.90
2017-12-14T11:52:13.330Z,4.90
2017-12-14T11:53:18.359Z,4.90
2017-12-14T11:54:22.930Z,4.90
2017-12-14T11:55:27.226Z,5.00
2017-12-14T11:56:31.733Z,5.10
2017-12-14T11:57:36.868Z,5.20
2017-12-14T11:58:41.239Z,5.20
2017-12-14T11:59:45.565Z,5.20
2017-12-14T12:00:50.512Z,5.40
2017-12-14T12:01:54.706Z,5.40
2017-12-14T12:02:58.931Z,5.40
2017-12-14T12:04:03.065Z,5.50
2017-12-14T12:05:07.331Z,5.50
2017-12-14T12:06:11.490Z,5.60
2017-12-14T12:07:15.566Z,5.50
2017-12-14T12:08:19.739Z,5.40
2017-12-14T12:09:23.949Z,5.50
2017-12-14T12:10:28.502Z,5.40
2017-12-14T12:11:32.686Z,5.40
2017-12-14T12:12:36.772Z,5.40
2017-12-14T12:13:40.883Z,5.30
2017-12-14T12:14:44.971Z,5.30
2017-12-14T12:15:49.434Z,5.30
2017-12-14T12:16:53.600Z,5.30
2017-12-14T12:17:57.729Z,5.30
2017-12-14T12:19:01.884Z,5.30
2017-12-14T12:20:06.203Z,5.20
2017-12-14T12:21:10.544Z,5.20
2017-12-14T12:22:14.713Z,5.20
2017-12-14T12:23:19.124Z,5.20
2017-12-14T12:24:23.200Z,5.20
2017-12-14T12:25:28.213Z,5.30
2017-12-14T12:26:33.291Z,5.20
2017-12-14T12:27:37.509Z,5.20
2017-12-14T12:28:42.252Z,5.20
2017-12-14T12:29:46.408Z,5.30
2017-12-14T12:30:50.882Z,5.20
2017-12-14T12:31:55.920Z,5.30
2017-12-14T12:33:00.386Z,5.20
2017-12-14T12:34:05.215Z,5.30
2017-12-14T12:35:09.513Z,5.30
2017-12-14T12:36:13.879Z,5.40
2017-12-14T12:37:18.271Z,5.40
2017-12-14T12:38:22.568Z,5.40
2017-12-14T12:39:27.780Z,5.40
2017-12-14T12:40:32.191Z,5.40
2017-12-14T12:41:36.535Z,5.40
2017-12-14T12:42:40.856Z,5.40
2017-12-14T12:43:45.350Z,5.40
2017-12-14T12:44:49.758Z,5.50
2017-12-14T12:45:54.384Z,5.50
2017-12-14T12:46:59.138Z,5.50
2017-12-14T12:48:03.634Z,5.50
2017-12-14T12:49:07.994Z,5.60
2017-12-14T12:50:12.295Z,5.60
2017-12-14T12:51:16.675Z,5.60
2017-12-14T12:52:21.037Z,5.60
2017-12-14T12:53:25.411Z,5.70
2017-12-14T12:54:29.610Z,5.70
2017-12-14T12:55:33.824Z,5.80
2017-12-14T12:56:38.090Z,5.70
2017-12-14T12:57:42.283Z,5.70
2017-12-14T12:58:46.996Z,5.70
2017-12-14T12:59:51.322Z,5.60
2017-12-14T13:00:55.674Z,5.60
2017-12-14T13:02:00.883Z,5.60
2017-12-14T13:03:05.537Z,5.60
2017-12-14T13:04:16.379Z,5.60
2017-12-14T13:05:22.525Z,5.70
2017-12-14T13:06:27.795Z,5.70
2017-12-14T13:07:33.759Z,5.70
2017-12-14T13:08:38.128Z,5.70
2017-12-14T13:09:43.077Z,5.70
2017-12-14T13:10:47.227Z,5.70
2017-12-14T13:11:51.321Z,5.70
2017-12-14T13:12:55.411Z,5.70
2017-12-14T13:13:59.535Z,5.70
2017-12-14T13:15:03.769Z,5.70
2017-12-14T13:16:08.084Z,5.70
2017-12-14T13:17:12.694Z,5.80
2017-12-14T13:18:17.163Z,5.80
2017-12-14T13:19:21.850Z,5.80
2017-12-14T13:20:26.288Z,5.90
2017-12-14T13:21:30.781Z,5.80
2017-12-14T13:22:35.732Z,5.80
2017-12-14T13:23:40.266Z,5.90
2017-12-14T13:24:44.526Z,5.90
2017-12-14T13:25:48.887Z,5.90
2017-12-14T13:26:53.538Z,6.00
2017-12-14T13:27:57.766Z,6.00
2017-12-14T13:29:01.935Z,5.90
2017-12-14T13:30:06.156Z,5.90
2017-12-14T13:31:10.585Z,6.00
2017-12-14T13:32:15.360Z,5.90
2017-12-14T13:33:19.631Z,6.00
2017-12-14T13:34:24.539Z,6.00
2017-12-14T13:35:29.975Z,6.10
2017-12-14T13:36:34.228Z,6.10
2017-12-14T13:37:38.513Z,6.10
2017-12-14T13:38:42.906Z,6.20
2017-12-14T13:39:47.819Z,6.00
2017-12-14T13:40:52.084Z,6.00
2017-12-14T13:41:56.341Z,6.00
2017-12-14T13:43:01.513Z,6.00
2017-12-14T13:44:07.203Z,6.00
2017-12-14T13:45:11.577Z,5.90
2017-12-14T13:46:15.734Z,5.90
2017-12-14T13:47:20.386Z,5.90
2017-12-14T13:48:24.642Z,5.90
2017-12-14T13:49:29.980Z,6.00
2017-12-14T13:50:40.470Z,6.10
2017-12-14T13:51:44.712Z,6.00
2017-12-14T13:52:50.497Z,6.20
2017-12-14T13:53:55.277Z,6.10
2017-12-14T13:55:00.244Z,6.10
2017-12-14T13:56:04.608Z,6.10
2017-12-14T13:57:10.157Z,6.10
2017-12-14T13:58:14.402Z,6.10
2017-12-14T13:59:18.631Z,6.10
2017-12-14T14:00:23.486Z,6.10
2017-12-14T14:01:27.999Z,6.10
2017-12-14T14:02:32.695Z,6.20
2017-12-14T14:03:37.198Z,6.10
2017-12-14T14:04:41.952Z,6.10
2017-12-14T14:05:46.878Z,6.10
2017-12-14T14:06:51.113Z,6.20
2017-12-14T14:07:55.432Z,6.20
2017-12-14T14:08:59.756Z,6.20
2017-12-14T14:10:05.699Z,6.20
2017-12-14T14:11:11.054Z,6.10
2017-12-14T14:12:15.684Z,6.00
2017-12-14T14:13:19.932Z,6.00
2017-12-14T14:14:24.344Z,5.90
2017-12-14T14:15:28.718Z,5.90
2017-12-14T14:16:34.353Z,5.80
2017-12-14T14:17:39.067Z,5.80
2017-12-14T14:18:44.285Z,5.70
2017-12-14T14:19:49.596Z,5.70
2017-12-14T14:20:54.377Z,5.70
2017-12-14T14:21:59.030Z,5.70
2017-12-14T14:23:03.353Z,5.80
2017-12-14T14:24:08.155Z,5.80
2017-12-14T14:25:12.274Z,5.80
2017-12-14T14:26:17.110Z,5.80
2017-12-14T14:27:21.226Z,5.70
2017-12-14T14:28:25.829Z,5.70